Glasgow, MT (59230)

2:19 AM MDT on August 30, 2014 (GMT -0600)
nashua | Change Station
CLOSE
Current Station
Personal Weather Station
Location: Nashua, MT
Elevation: 2156 ft
Nearby Weather Stations
Active Advisory: Flood Warning Active Notice: Local Storm Report

Elev 2156 ft 48.11 °N, 106.45 °W | Updated 19 minutes ago

Clear
Clear
53.2 °F
Feels Like 53.2 °F
N
5.0
Wind Variable Wind from ENE
Gusts 7.3 mph

Today
High -- | Low -- °F
--% Chance of Precip.
Yesterday
High -- | Low -- °F
Precip. -- in
6:21 AM 7:51 PM
Waxing Crescent, 20% visible
Pressure 29.84 in
Visibility 10.0 miles
Clouds Clear
Dew Point 53 °F
Humidity 100%
Rainfall 0.00 in
Snow Depth Not available.
UV 0 out of 12
Pollen 8.70 out of 12
Air Quality Not available.
Flu Activity Not available.
METAR KGGW 300753Z AUTO 11011KT 10SM CLR 13/11 A2984

More Conditions Fewer Conditions

Pressure 29.84 in
Visibility 10.0 miles
Clouds Clear
Dew Point 53 °F
Humidity 100%
Rainfall 0.00 in
Snow Depth Not available.
UV 0 out of 12
Pollen 8.70 out of 12
Air Quality Not available.
Flu Activity Not available.
METAR KGGW 300753Z AUTO 11011KT 10SM CLR 13/11 A2984

More Conditions Fewer Conditions

10-Day Weather Forecast

Almanac

Astronomy

Aug. 30, 2014 Rise Set
Actual Time 6:21 AM MDT 7:51 PM MDT
Civil Twilight 5:48 AM MDT 8:23 PM MDT
Nautical Twilight 5:08 AM MDT 9:02 PM MDT
Astronomical Twilight 4:25 AM MDT 9:45 PM MDT
Moon 11:36 AM MDT 10:00 PM MDT
Length of Visible Light 14h 34m
Length of Day
13h 29m
Tomorrow will be 3m 22s shorter.
Waxing Crescent, 20% of the Moon is Illuminated
Today
Waxing Crescent
Sep 2
First Quarter
Sep 8
Full
Sep 15
Last Quarter
Sep 24
New

Today's Extremes

State Highs State Lows

Community

WunderPhotos

Upload Photos

1,748,468 photos uploaded!

Nearby

Snow Depth

Station Depth Elevation
Crystal Lake 0 in 6050 ft
Spur Park 0 in 8100 ft
Deadman Creek 0 in 6450 ft
Onion Park 0 in 7410 ft
Stringer Creek 0 in 6550 ft

Earthquake Activity

City Distance Mag. Time & Date
No recent earthquake activity has been reported nearby.
Minimum magnitude displayed is 2.5.

Coastal Water Temperatures

Place Temperature
No Stations Reporting

Nearby Weather Stations